0G0 weather

Public forecast

Using degrees Fahrenheit for public forecast. Weather courtesy of forecast.io.

Closest aviation weather report (METAR) to North Buffalo Suburban Airport

Closest report is Buffalo Niagara International Airport, 9.9 nm (18.2 km) S. Retrieved 2020/08/14 13:54 UTC (36 minutes ago):

KBUF 141354Z 06008KT 10SM FEW160 FEW260 27/16 A3011 RMK AO2 SLP191 T02670156

Closest aviation forecast (TAF) to North Buffalo Suburban Airport

Closest forecast is Buffalo Niagara International Airport, 9.9 nm (18.2 km) S. Retrieved 2020/08/14 12:22 UTC (2 hours ago):

TAF KBUF 141120Z 1412/1512 06005KT P6SM SCT250 FM141500 06010G16KT P6SM FEW250 FM150100 08007KT P6SM FEW250 FM151000 VRB03KT P6SM BKN050